createdAt,value
2018-12-22T00:00:45.169Z,4.10
2018-12-22T00:01:45.164Z,3.90
2018-12-22T00:02:45.160Z,3.50
2018-12-22T00:03:45.152Z,3.60
2018-12-22T00:04:45.148Z,3.40
2018-12-22T00:05:45.143Z,4.20
2018-12-22T00:06:45.136Z,4.20
2018-12-22T00:07:45.131Z,4.00
2018-12-22T00:08:45.126Z,3.50
2018-12-22T00:09:45.119Z,3.50
2018-12-22T00:10:45.115Z,3.30
2018-12-22T00:11:45.107Z,4.10
2018-12-22T00:12:45.101Z,4.50
2018-12-22T00:13:45.097Z,3.30
2018-12-22T00:14:45.094Z,3.90
2018-12-22T00:15:45.086Z,4.10
2018-12-22T00:16:45.083Z,3.60
2018-12-22T00:17:45.077Z,3.40
2018-12-22T00:18:45.070Z,3.10
2018-12-22T00:19:45.064Z,3.00
2018-12-22T00:20:45.058Z,3.30
2018-12-22T00:21:45.054Z,3.80
2018-12-22T00:22:45.048Z,3.50
2018-12-22T00:23:45.041Z,3.10
2018-12-22T00:24:45.040Z,4.20
2018-12-22T00:25:45.030Z,3.40
2018-12-22T00:26:45.024Z,4.60
2018-12-22T00:27:45.019Z,4.70
2018-12-22T00:28:45.014Z,4.50
2018-12-22T00:29:45.010Z,3.00
2018-12-22T00:30:45.004Z,3.50
2018-12-22T00:31:44.997Z,3.90
2018-12-22T00:32:44.995Z,3.30
2018-12-22T00:33:44.987Z,3.70
2018-12-22T00:34:44.981Z,2.70
2018-12-22T00:35:44.977Z,4.50
2018-12-22T00:36:44.969Z,3.40
2018-12-22T00:37:44.966Z,4.50
2018-12-22T00:38:44.959Z,3.60
2018-12-22T00:39:44.958Z,3.60
2018-12-22T00:40:44.952Z,3.60
2018-12-22T00:41:44.943Z,4.40
2018-12-22T00:42:44.938Z,4.00
2018-12-22T00:43:44.932Z,3.80
2018-12-22T00:44:44.926Z,3.70
2018-12-22T00:45:44.926Z,3.80
2018-12-22T00:46:44.917Z,4.00
2018-12-22T00:47:44.910Z,3.70
2018-12-22T00:48:44.906Z,3.60
2018-12-22T00:49:44.901Z,3.70
2018-12-22T00:50:44.896Z,3.70
2018-12-22T00:51:44.889Z,3.70
2018-12-22T00:52:44.883Z,3.90
2018-12-22T00:53:44.879Z,4.70
2018-12-22T00:54:44.875Z,4.60
2018-12-22T00:55:44.867Z,4.80
2018-12-22T00:56:44.863Z,4.80
2018-12-22T00:57:44.857Z,4.80
2018-12-22T00:58:44.853Z,4.70
2018-12-22T00:59:44.850Z,5.10
2018-12-22T01:00:44.841Z,4.80
2018-12-22T01:01:44.836Z,3.50
2018-12-22T01:02:44.830Z,3.90
2018-12-22T01:03:44.827Z,3.80
2018-12-22T01:04:44.819Z,3.50
2018-12-22T01:05:44.814Z,3.90
2018-12-22T01:06:44.809Z,3.50
2018-12-22T01:07:44.809Z,3.90
2018-12-22T01:08:44.796Z,3.80
2018-12-22T01:09:44.791Z,3.80
2018-12-22T01:10:44.787Z,3.60
2018-12-22T01:11:44.782Z,3.90
2018-12-22T01:12:44.779Z,3.80
2018-12-22T01:13:44.771Z,4.00
2018-12-22T01:14:44.765Z,3.80
2018-12-22T01:15:44.759Z,4.40
2018-12-22T01:16:44.902Z,3.60
2018-12-22T01:17:44.749Z,3.60
2018-12-22T01:18:44.745Z,3.20
2018-12-22T01:19:44.751Z,4.10
2018-12-22T01:20:44.731Z,3.60
2018-12-22T01:21:44.728Z,3.10
2018-12-22T01:22:44.720Z,3.40
2018-12-22T01:23:44.714Z,3.90
2018-12-22T01:24:44.709Z,3.10
2018-12-22T01:25:44.707Z,3.70
2018-12-22T01:26:44.699Z,4.40
2018-12-22T01:27:44.693Z,4.60
2018-12-22T01:28:44.689Z,4.40
2018-12-22T01:29:44.683Z,4.80
2018-12-22T01:30:44.677Z,4.20
2018-12-22T01:31:44.672Z,4.40
2018-12-22T01:32:44.666Z,5.10
2018-12-22T01:33:44.660Z,4.00
2018-12-22T01:34:44.655Z,4.40
2018-12-22T01:35:44.652Z,3.80
2018-12-22T01:36:44.645Z,5.40
2018-12-22T01:37:44.639Z,4.50
2018-12-22T01:38:44.634Z,4.10
2018-12-22T01:39:44.628Z,4.00
2018-12-22T01:40:44.623Z,4.80
2018-12-22T01:41:44.619Z,4.10
2018-12-22T01:42:44.613Z,4.50
2018-12-22T01:43:44.707Z,3.90
2018-12-22T01:44:44.604Z,4.00
2018-12-22T01:45:44.596Z,4.00
2018-12-22T01:46:44.592Z,3.70
2018-12-22T01:47:44.587Z,4.20
2018-12-22T01:48:44.582Z,4.40
2018-12-22T01:49:44.574Z,3.80
2018-12-22T01:50:44.570Z,3.00
2018-12-22T01:51:44.565Z,3.60
2018-12-22T01:52:44.561Z,3.80
2018-12-22T01:53:44.553Z,3.60
2018-12-22T01:54:44.548Z,3.70
2018-12-22T01:55:44.542Z,4.10
2018-12-22T01:56:44.536Z,3.10
2018-12-22T01:57:44.531Z,3.70
2018-12-22T01:58:47.879Z,4.00
2018-12-22T01:59:44.521Z,3.30
2018-12-22T02:00:44.516Z,3.40
2018-12-22T02:01:44.511Z,3.90
2018-12-22T02:02:44.507Z,3.50
2018-12-22T02:03:44.500Z,3.40
2018-12-22T02:04:44.494Z,3.20
2018-12-22T02:05:44.490Z,4.00
2018-12-22T02:06:44.483Z,3.20
2018-12-22T02:07:44.477Z,3.10
2018-12-22T02:08:44.472Z,3.10
2018-12-22T02:09:44.505Z,2.90
2018-12-22T02:10:44.462Z,3.70
2018-12-22T02:11:44.457Z,3.70
2018-12-22T02:12:44.517Z,3.30
2018-12-22T02:13:44.446Z,3.90
2018-12-22T02:14:44.440Z,3.40
2018-12-22T02:15:44.435Z,3.80
2018-12-22T02:16:44.430Z,3.90
2018-12-22T02:17:44.432Z,4.40
2018-12-22T02:18:44.421Z,2.90
2018-12-22T02:19:44.415Z,4.10
2018-12-22T02:20:44.410Z,3.90
2018-12-22T02:21:44.403Z,3.50
2018-12-22T02:22:44.400Z,4.00
2018-12-22T02:23:44.394Z,3.80
2018-12-22T02:24:44.388Z,5.00
2018-12-22T02:25:44.382Z,4.10
2018-12-22T02:26:44.382Z,4.40
2018-12-22T02:27:44.374Z,3.80
2018-12-22T02:28:44.371Z,4.20
2018-12-22T02:29:44.362Z,5.00
2018-12-22T02:30:44.357Z,4.60
2018-12-22T02:31:44.351Z,4.00
2018-12-22T02:32:44.349Z,4.30
2018-12-22T02:33:44.342Z,4.80
2018-12-22T02:34:44.335Z,4.00
2018-12-22T02:35:44.329Z,4.80
2018-12-22T02:36:44.324Z,4.20
2018-12-22T02:37:44.328Z,4.10
2018-12-22T02:38:44.315Z,4.20
2018-12-22T02:39:44.311Z,3.80
2018-12-22T02:40:44.307Z,4.40
2018-12-22T02:41:44.298Z,4.10
2018-12-22T02:42:44.297Z,4.20
2018-12-22T02:43:44.288Z,5.10
2018-12-22T02:44:44.283Z,4.50
2018-12-22T02:45:44.284Z,4.60
2018-12-22T02:46:44.274Z,3.90
2018-12-22T02:47:44.267Z,4.60
2018-12-22T02:48:44.265Z,5.00
2018-12-22T02:49:44.257Z,4.70
2018-12-22T02:50:44.252Z,4.90
2018-12-22T02:51:44.245Z,4.40
2018-12-22T02:52:44.241Z,4.80
2018-12-22T02:53:44.236Z,4.80
2018-12-22T02:54:44.234Z,4.20
2018-12-22T02:55:44.223Z,5.50
2018-12-22T02:56:44.220Z,4.90
2018-12-22T02:57:44.222Z,5.00
2018-12-22T02:58:44.209Z,5.10
2018-12-22T02:59:44.202Z,4.60
2018-12-22T03:00:44.200Z,5.10
2018-12-22T03:01:44.194Z,4.50
2018-12-22T03:02:44.190Z,3.70
2018-12-22T03:03:44.182Z,3.60
2018-12-22T03:04:44.176Z,4.10
2018-12-22T03:05:44.171Z,4.10
2018-12-22T03:06:44.168Z,3.90
2018-12-22T03:07:44.161Z,4.10
2018-12-22T03:08:44.156Z,3.50
2018-12-22T03:09:44.150Z,3.40
2018-12-22T03:10:44.145Z,5.20
2018-12-22T03:11:44.139Z,4.20
2018-12-22T03:12:44.137Z,3.30
2018-12-22T03:13:44.136Z,5.10
2018-12-22T03:14:44.125Z,4.30
2018-12-22T03:15:44.122Z,3.10
2018-12-22T03:16:44.114Z,3.10
2018-12-22T03:17:44.107Z,4.20
2018-12-22T03:18:44.103Z,4.00
2018-12-22T03:19:44.099Z,3.60
2018-12-22T03:20:44.091Z,3.40
2018-12-22T03:21:44.085Z,4.00
2018-12-22T03:22:44.081Z,4.00
2018-12-22T03:23:44.076Z,3.80
2018-12-22T03:24:44.072Z,3.30
2018-12-22T03:25:44.071Z,3.00
2018-12-22T03:26:44.062Z,3.90
2018-12-22T03:27:44.055Z,3.20
2018-12-22T03:28:44.052Z,3.60
2018-12-22T03:29:44.046Z,4.10
2018-12-22T03:30:44.040Z,3.10
2018-12-22T03:31:44.035Z,3.60
2018-12-22T03:32:44.029Z,2.70
2018-12-22T03:33:44.024Z,4.00
2018-12-22T03:34:44.021Z,3.80
2018-12-22T03:35:44.014Z,2.60
2018-12-22T03:36:44.009Z,3.10
2018-12-22T03:37:44.005Z,2.60
2018-12-22T03:38:43.999Z,2.80
2018-12-22T03:39:43.993Z,2.60
2018-12-22T03:40:43.989Z,3.20
2018-12-22T03:41:43.983Z,2.20
2018-12-22T03:42:43.977Z,3.60
2018-12-22T03:43:43.971Z,3.80
2018-12-22T03:44:43.967Z,3.00
2018-12-22T03:45:43.962Z,2.80
2018-12-22T03:46:43.956Z,3.00
2018-12-22T03:47:43.952Z,2.20
2018-12-22T03:48:43.948Z,2.60
2018-12-22T03:49:43.942Z,2.60
2018-12-22T03:50:43.936Z,3.30
2018-12-22T03:51:43.930Z,2.80
2018-12-22T03:52:43.924Z,2.70
2018-12-22T03:53:43.922Z,2.60
2018-12-22T03:54:43.916Z,2.70
2018-12-22T03:55:43.910Z,2.20
2018-12-22T03:56:43.907Z,3.00
2018-12-22T03:57:43.901Z,2.70
2018-12-22T03:58:43.902Z,2.30
2018-12-22T03:59:43.891Z,3.40
2018-12-22T04:00:43.883Z,2.70
2018-12-22T04:01:43.878Z,3.00
2018-12-22T04:02:43.873Z,2.90
2018-12-22T04:03:43.868Z,3.90
2018-12-22T04:04:43.868Z,3.00
2018-12-22T04:05:43.857Z,3.20
2018-12-22T04:06:43.854Z,2.80
2018-12-22T04:07:43.846Z,3.10
2018-12-22T04:08:43.843Z,2.90
2018-12-22T04:09:43.840Z,2.30
2018-12-22T04:10:43.832Z,2.30
2018-12-22T04:11:43.827Z,2.50
2018-12-22T04:12:43.823Z,2.60
2018-12-22T04:13:43.817Z,2.50
2018-12-22T04:14:43.924Z,3.30
2018-12-22T04:15:43.806Z,2.80
2018-12-22T04:16:43.800Z,2.30
2018-12-22T04:17:43.868Z,2.80
2018-12-22T04:18:43.790Z,3.50
2018-12-22T04:19:43.785Z,2.10
2018-12-22T04:20:43.783Z,2.20
2018-12-22T04:21:43.776Z,3.00
2018-12-22T04:22:43.769Z,2.50
2018-12-22T04:23:43.768Z,2.00
2018-12-22T04:24:43.759Z,2.60
2018-12-22T04:25:43.756Z,2.80
2018-12-22T04:26:43.749Z,2.40
2018-12-22T04:27:43.744Z,4.00
2018-12-22T04:28:43.739Z,2.70
2018-12-22T04:29:43.736Z,2.30
2018-12-22T04:30:43.728Z,2.80
2018-12-22T04:31:43.722Z,2.80
2018-12-22T04:32:43.720Z,2.70
2018-12-22T04:33:43.718Z,2.80
2018-12-22T04:34:43.708Z,2.50
2018-12-22T04:35:43.702Z,2.40
2018-12-22T04:36:43.697Z,2.40
2018-12-22T04:37:43.692Z,2.90
2018-12-22T04:38:43.686Z,3.30
2018-12-22T04:39:43.681Z,2.60
2018-12-22T04:40:43.677Z,2.30
2018-12-22T04:41:43.672Z,2.20
2018-12-22T04:42:43.666Z,2.20
2018-12-22T04:43:43.662Z,1.90
2018-12-22T04:44:43.655Z,1.90
2018-12-22T04:45:43.649Z,1.60
2018-12-22T04:46:43.645Z,1.90
2018-12-22T04:47:43.641Z,2.00
2018-12-22T04:48:43.635Z,2.00
2018-12-22T04:49:43.629Z,2.50
2018-12-22T04:50:43.626Z,1.70
2018-12-22T04:51:43.619Z,1.80
2018-12-22T04:52:43.614Z,1.50
2018-12-22T04:53:43.610Z,1.70
2018-12-22T04:54:43.604Z,1.50
2018-12-22T04:55:43.598Z,1.30
2018-12-22T04:56:43.594Z,1.80
2018-12-22T04:57:43.590Z,1.70
2018-12-22T04:58:43.583Z,1.40
2018-12-22T04:59:43.579Z,1.60
2018-12-22T05:00:43.574Z,1.10
2018-12-22T05:01:43.568Z,1.50
2018-12-22T05:02:43.564Z,1.40
2018-12-22T05:03:43.561Z,1.40
2018-12-22T05:04:43.554Z,1.40
2018-12-22T05:05:43.553Z,1.10
2018-12-22T05:06:43.554Z,1.70
2018-12-22T05:07:43.539Z,1.40
2018-12-22T05:08:43.533Z,1.90
2018-12-22T05:09:43.528Z,1.40
2018-12-22T05:10:43.524Z,1.30
2018-12-22T05:11:43.517Z,1.20
2018-12-22T05:12:43.517Z,1.50
2018-12-22T05:13:43.508Z,1.20
2018-12-22T05:14:43.503Z,1.40
2018-12-22T05:15:43.499Z,1.20
2018-12-22T05:16:43.494Z,1.00
2018-12-22T05:17:43.488Z,1.20
2018-12-22T05:18:43.483Z,1.30
2018-12-22T05:19:43.477Z,1.60
2018-12-22T05:20:43.474Z,1.10
2018-12-22T05:21:43.468Z,1.20
2018-12-22T05:22:43.464Z,1.20
2018-12-22T05:23:43.459Z,2.00
2018-12-22T05:24:43.453Z,1.00
2018-12-22T05:25:43.448Z,1.50
2018-12-22T05:26:43.442Z,1.30
2018-12-22T05:27:43.436Z,1.50
2018-12-22T05:28:43.431Z,1.20
2018-12-22T05:29:51.549Z,1.10
2018-12-22T05:30:43.424Z,1.30
2018-12-22T05:31:43.418Z,1.30
2018-12-22T05:32:43.411Z,1.10
2018-12-22T05:33:43.406Z,1.40
2018-12-22T05:34:43.402Z,1.60
2018-12-22T05:35:43.397Z,1.50
2018-12-22T05:36:43.392Z,1.10
2018-12-22T05:37:43.387Z,1.40
2018-12-22T05:38:43.381Z,1.60
2018-12-22T05:39:43.376Z,1.40
2018-12-22T05:40:43.371Z,1.50
2018-12-22T05:41:43.366Z,1.50
2018-12-22T05:42:43.364Z,1.80
2018-12-22T05:43:43.355Z,1.50
2018-12-22T05:44:43.350Z,1.50
2018-12-22T05:45:43.346Z,1.70
2018-12-22T05:46:43.340Z,1.50
2018-12-22T05:47:43.333Z,2.20
2018-12-22T05:48:43.330Z,2.00
2018-12-22T05:49:43.324Z,2.00
2018-12-22T05:50:43.319Z,2.10
2018-12-22T05:51:43.314Z,1.80
2018-12-22T05:52:43.310Z,2.50
2018-12-22T05:53:43.304Z,2.40
2018-12-22T05:54:43.298Z,2.20
2018-12-22T05:55:43.292Z,1.90
2018-12-22T05:56:43.290Z,2.60
2018-12-22T05:57:43.283Z,3.00
2018-12-22T05:58:43.277Z,3.20
2018-12-22T05:59:43.271Z,2.60
2018-12-22T06:00:43.267Z,2.50
2018-12-22T06:01:43.261Z,2.90
2018-12-22T06:02:43.255Z,2.50
2018-12-22T06:03:43.250Z,2.50
2018-12-22T06:04:43.247Z,3.10
2018-12-22T06:05:43.241Z,2.60
2018-12-22T06:06:43.234Z,2.90
2018-12-22T06:07:43.229Z,2.30
2018-12-22T06:08:43.224Z,2.70
2018-12-22T06:09:43.218Z,3.00
2018-12-22T06:10:43.213Z,3.00
2018-12-22T06:11:43.207Z,2.80
2018-12-22T06:12:43.203Z,2.30
2018-12-22T06:13:43.197Z,2.60
2018-12-22T06:14:43.193Z,2.40
2018-12-22T06:15:43.189Z,2.20
2018-12-22T06:16:43.180Z,2.20
2018-12-22T06:17:43.177Z,2.30
2018-12-22T06:18:43.172Z,2.20
2018-12-22T06:19:43.165Z,2.00
2018-12-22T06:20:43.165Z,2.30
2018-12-22T06:21:43.155Z,2.10
2018-12-22T06:22:43.150Z,2.00
2018-12-22T06:23:43.144Z,1.60
2018-12-22T06:24:43.139Z,1.80
2018-12-22T06:25:43.132Z,2.20
2018-12-22T06:26:43.129Z,2.30
2018-12-22T06:27:43.123Z,1.70
2018-12-22T06:28:43.118Z,2.00
2018-12-22T06:29:43.113Z,1.60
2018-12-22T06:30:43.110Z,2.00
2018-12-22T06:31:43.102Z,2.30
2018-12-22T06:32:43.097Z,1.70
2018-12-22T06:33:43.091Z,2.10
2018-12-22T06:34:43.087Z,1.40
2018-12-22T06:35:43.080Z,1.80
2018-12-22T06:36:43.074Z,1.50
2018-12-22T06:37:43.070Z,1.70
2018-12-22T06:38:43.066Z,1.80
2018-12-22T06:39:43.128Z,2.00
2018-12-22T06:40:43.054Z,1.60
2018-12-22T06:41:43.050Z,2.00
2018-12-22T06:42:43.044Z,1.90
2018-12-22T06:43:43.036Z,1.30
2018-12-22T06:44:43.032Z,1.50
2018-12-22T06:45:43.026Z,1.80
2018-12-22T06:46:43.026Z,1.60
2018-12-22T06:47:43.015Z,1.40
2018-12-22T06:48:43.010Z,2.00
2018-12-22T06:49:43.006Z,1.50
2018-12-22T06:50:43.000Z,1.70
2018-12-22T06:51:42.995Z,1.40
2018-12-22T06:52:42.991Z,1.50
2018-12-22T06:53:42.984Z,1.80
2018-12-22T06:54:42.982Z,1.60
2018-12-22T06:55:42.972Z,1.50
2018-12-22T06:56:42.968Z,1.40
2018-12-22T06:57:42.963Z,2.10
2018-12-22T06:58:42.957Z,1.40
2018-12-22T06:59:42.951Z,2.00
2018-12-22T07:00:42.947Z,1.70
2018-12-22T07:01:42.942Z,1.30
2018-12-22T07:02:42.939Z,1.70
2018-12-22T07:03:42.931Z,2.20
2018-12-22T07:04:42.926Z,1.80
2018-12-22T07:05:42.920Z,1.40
2018-12-22T07:06:42.915Z,0.80
2018-12-22T07:07:42.908Z,1.40
2018-12-22T07:08:42.903Z,1.30
2018-12-22T07:09:42.898Z,1.30
2018-12-22T07:10:42.894Z,1.50
2018-12-22T07:11:42.888Z,1.20
2018-12-22T07:12:42.883Z,1.50
2018-12-22T07:13:42.877Z,1.60
2018-12-22T07:14:42.877Z,1.20
2018-12-22T07:15:42.871Z,1.30
2018-12-22T07:16:42.862Z,1.30
2018-12-22T07:17:42.856Z,1.10
2018-12-22T07:18:42.854Z,1.20
2018-12-22T07:19:42.844Z,1.70
2018-12-22T07:20:42.839Z,1.10
2018-12-22T07:21:42.834Z,1.40
2018-12-22T07:22:42.828Z,1.90
2018-12-22T07:23:42.826Z,1.30
2018-12-22T07:24:42.817Z,1.30
2018-12-22T07:25:42.812Z,1.40
2018-12-22T07:26:42.807Z,1.20
2018-12-22T07:27:42.805Z,1.10
2018-12-22T07:28:42.796Z,1.20
2018-12-22T07:29:42.791Z,1.40
2018-12-22T07:30:42.785Z,1.50
2018-12-22T07:31:42.779Z,1.20
2018-12-22T07:32:42.776Z,1.40
2018-12-22T07:33:42.769Z,1.40
2018-12-22T07:34:42.764Z,1.00
2018-12-22T07:35:42.756Z,1.20
2018-12-22T07:36:42.752Z,1.00
2018-12-22T07:37:42.745Z,1.40
2018-12-22T07:38:42.741Z,1.30
2018-12-22T07:39:42.734Z,1.20
2018-12-22T07:40:42.730Z,0.90
2018-12-22T07:41:42.724Z,1.40
2018-12-22T07:42:42.719Z,1.40
2018-12-22T07:43:42.712Z,0.80
2018-12-22T07:44:42.708Z,1.30
2018-12-22T07:45:42.702Z,1.60
2018-12-22T07:46:42.696Z,1.10
2018-12-22T07:47:42.692Z,1.00
2018-12-22T07:48:42.687Z,1.00
2018-12-22T07:49:42.679Z,1.10
2018-12-22T07:50:42.673Z,0.70
2018-12-22T07:51:42.668Z,1.30
2018-12-22T07:52:42.664Z,1.00
2018-12-22T07:53:42.656Z,0.70
2018-12-22T07:54:43.711Z,1.50
2018-12-22T07:55:42.646Z,0.80
2018-12-22T07:56:42.640Z,0.80
2018-12-22T07:57:42.635Z,1.40
2018-12-22T07:58:42.631Z,0.80
2018-12-22T07:59:42.623Z,0.90
2018-12-22T08:00:42.617Z,1.30
2018-12-22T08:01:42.613Z,0.90
2018-12-22T08:02:42.608Z,1.10
2018-12-22T08:03:42.604Z,0.60
2018-12-22T08:04:42.596Z,0.50
2018-12-22T08:05:42.591Z,0.70
2018-12-22T08:06:42.584Z,0.50
2018-12-22T08:07:42.579Z,0.50
2018-12-22T08:08:42.572Z,0.60
2018-12-22T08:09:42.569Z,0.50
2018-12-22T08:10:42.562Z,0.50
2018-12-22T08:11:42.557Z,0.60
2018-12-22T08:12:42.551Z,0.60
2018-12-22T08:13:42.545Z,2.30
2018-12-22T08:14:42.541Z,2.40
2018-12-22T08:15:43.088Z,1.00
2018-12-22T08:16:42.529Z,0.70
2018-12-22T08:17:42.524Z,0.50
2018-12-22T08:18:42.519Z,0.80
2018-12-22T08:19:42.511Z,0.50
2018-12-22T08:20:42.506Z,1.00
2018-12-22T08:21:42.501Z,0.50
2018-12-22T08:22:42.495Z,0.80
2018-12-22T08:23:42.490Z,2.40
2018-12-22T08:24:42.483Z,11.00
2018-12-22T08:25:42.479Z,1.70
2018-12-22T08:26:42.475Z,2.60
2018-12-22T08:27:42.467Z,0.70
2018-12-22T08:28:42.463Z,1.20
2018-12-22T08:29:42.457Z,2.70
2018-12-22T08:30:43.636Z,3.00
2018-12-22T08:31:42.444Z,0.90
2018-12-22T08:32:42.439Z,1.20
2018-12-22T08:33:42.434Z,1.20
2018-12-22T08:34:42.429Z,0.80
2018-12-22T08:35:42.422Z,0.60
2018-12-22T08:36:42.419Z,0.50
2018-12-22T08:37:42.410Z,0.60
2018-12-22T08:38:42.405Z,0.60
2018-12-22T08:39:42.400Z,0.60
2018-12-22T08:40:42.395Z,0.80
2018-12-22T08:41:42.389Z,0.40
2018-12-22T08:42:42.384Z,1.00
2018-12-22T08:43:42.377Z,0.90
2018-12-22T08:44:42.896Z,0.70
2018-12-22T08:45:42.366Z,1.00
2018-12-22T08:46:42.363Z,0.50
2018-12-22T08:47:42.354Z,0.50
2018-12-22T08:48:42.348Z,0.80
2018-12-22T08:49:42.345Z,0.80
2018-12-22T08:50:42.337Z,0.60
2018-12-22T08:51:42.333Z,0.70
2018-12-22T08:52:42.327Z,0.60
2018-12-22T08:53:42.320Z,0.50
2018-12-22T08:54:42.315Z,0.60
2018-12-22T08:55:42.406Z,0.80
2018-12-22T08:56:42.303Z,0.80
2018-12-22T08:57:42.385Z,1.10
2018-12-22T08:58:42.291Z,0.50
2018-12-22T08:59:42.288Z,0.80
2018-12-22T09:00:42.279Z,0.90
2018-12-22T09:01:42.275Z,0.50
2018-12-22T09:02:42.269Z,0.50
2018-12-22T09:03:42.264Z,0.60
2018-12-22T09:04:42.255Z,0.60
2018-12-22T09:05:42.250Z,0.60
2018-12-22T09:06:42.246Z,0.60
2018-12-22T09:07:42.238Z,0.50
2018-12-22T09:08:42.234Z,0.70
2018-12-22T09:09:42.229Z,0.70
2018-12-22T09:10:42.221Z,0.90
2018-12-22T09:11:42.215Z,0.80
2018-12-22T09:12:42.210Z,0.70
2018-12-22T09:13:42.205Z,0.70
2018-12-22T09:14:42.201Z,1.20
2018-12-22T09:15:42.192Z,1.20
2018-12-22T09:16:42.188Z,1.30
2018-12-22T09:17:42.182Z,1.50
2018-12-22T09:18:42.175Z,1.60
2018-12-22T09:19:42.170Z,1.70
2018-12-22T09:20:42.165Z,1.50
2018-12-22T09:21:42.160Z,2.00
2018-12-22T09:22:42.154Z,2.10
2018-12-22T09:23:42.146Z,2.10
2018-12-22T09:24:42.143Z,2.20
2018-12-22T09:25:42.136Z,2.50
2018-12-22T09:26:42.131Z,2.00
2018-12-22T09:27:42.127Z,2.10
2018-12-22T09:28:42.118Z,2.30
2018-12-22T09:29:42.113Z,2.50
2018-12-22T09:30:42.107Z,3.20
2018-12-22T09:31:42.101Z,1.90
2018-12-22T09:32:42.097Z,2.50
2018-12-22T09:33:42.176Z,2.30
2018-12-22T09:34:42.092Z,1.80
2018-12-22T09:35:42.080Z,2.20
2018-12-22T09:36:42.073Z,2.40
2018-12-22T09:37:42.070Z,2.20
2018-12-22T09:38:42.065Z,2.00
2018-12-22T09:39:42.057Z,2.60
2018-12-22T09:40:42.051Z,2.30
2018-12-22T09:41:42.046Z,2.30
2018-12-22T09:42:42.040Z,3.60
2018-12-22T09:43:42.037Z,2.50
2018-12-22T09:44:42.030Z,2.70
2018-12-22T09:45:42.023Z,2.00
2018-12-22T09:46:42.019Z,1.90
2018-12-22T09:47:42.012Z,1.70
2018-12-22T09:48:42.006Z,1.50
2018-12-22T09:49:42.003Z,1.50
2018-12-22T09:50:41.997Z,1.70
2018-12-22T09:51:41.991Z,1.70
2018-12-22T09:52:41.986Z,1.60
2018-12-22T09:53:41.980Z,1.90
2018-12-22T09:54:41.975Z,1.40
2018-12-22T09:55:41.967Z,1.80
2018-12-22T09:56:41.962Z,2.00
2018-12-22T09:57:41.957Z,2.10
2018-12-22T09:58:41.951Z,1.70
2018-12-22T09:59:41.948Z,2.20
2018-12-22T10:00:41.943Z,2.00
2018-12-22T10:01:41.940Z,1.90
2018-12-22T10:02:41.932Z,1.90
2018-12-22T10:03:41.926Z,1.50
2018-12-22T10:04:41.918Z,1.30
2018-12-22T10:05:41.913Z,1.60
2018-12-22T10:06:41.909Z,1.30
2018-12-22T10:07:41.905Z,1.00
2018-12-22T10:08:41.896Z,1.30
2018-12-22T10:09:41.893Z,1.10
2018-12-22T10:10:41.887Z,1.10
2018-12-22T10:11:41.881Z,1.10
2018-12-22T10:12:41.876Z,1.90
2018-12-22T10:13:41.873Z,1.70
2018-12-22T10:14:41.864Z,2.30
2018-12-22T10:15:41.860Z,2.30
2018-12-22T10:16:41.855Z,2.00
2018-12-22T10:17:41.850Z,1.70
2018-12-22T10:18:41.844Z,1.60
2018-12-22T10:19:41.839Z,1.50
2018-12-22T10:20:41.833Z,1.40
2018-12-22T10:21:41.827Z,1.50
2018-12-22T10:22:41.823Z,1.80
2018-12-22T10:23:41.815Z,1.70
2018-12-22T10:24:41.811Z,1.90
2018-12-22T10:25:41.807Z,1.40
2018-12-22T10:26:41.800Z,1.70
2018-12-22T10:27:41.796Z,1.50
2018-12-22T10:28:41.790Z,1.70
2018-12-22T10:29:41.788Z,1.50
2018-12-22T10:30:41.780Z,2.20
2018-12-22T10:31:41.774Z,1.80
2018-12-22T10:32:41.769Z,1.50
2018-12-22T10:33:41.763Z,2.50
2018-12-22T10:34:41.758Z,2.20
2018-12-22T10:35:41.752Z,1.50
2018-12-22T10:36:41.748Z,1.50
2018-12-22T10:37:41.742Z,1.40
2018-12-22T10:38:41.740Z,1.60
2018-12-22T10:39:41.733Z,1.70
2018-12-22T10:40:41.728Z,2.10
2018-12-22T10:41:41.724Z,2.60
2018-12-22T10:42:41.717Z,2.20
2018-12-22T10:43:41.709Z,1.30
2018-12-22T10:44:41.705Z,1.30
2018-12-22T10:45:41.699Z,1.60
2018-12-22T10:46:41.694Z,1.40
2018-12-22T10:47:41.689Z,1.40
2018-12-22T10:48:41.684Z,1.30
2018-12-22T10:49:41.680Z,1.70
2018-12-22T10:50:41.675Z,1.60
2018-12-22T10:51:41.668Z,1.20
2018-12-22T10:52:41.662Z,1.30
2018-12-22T10:53:41.659Z,1.60
2018-12-22T10:54:41.652Z,1.30
2018-12-22T10:55:41.647Z,1.60
2018-12-22T10:56:41.643Z,2.10
2018-12-22T10:57:41.636Z,2.00
2018-12-22T10:58:41.632Z,2.20
2018-12-22T10:59:41.630Z,2.30
2018-12-22T11:00:41.620Z,2.00
2018-12-22T11:01:41.617Z,2.40
2018-12-22T11:02:41.610Z,2.90
2018-12-22T11:03:41.606Z,1.60
2018-12-22T11:04:41.600Z,1.40
2018-12-22T11:05:41.597Z,1.00
2018-12-22T11:06:41.590Z,1.10
2018-12-22T11:07:41.584Z,1.00
2018-12-22T11:08:41.579Z,1.40
2018-12-22T11:09:41.573Z,1.60
2018-12-22T11:10:41.569Z,1.50
2018-12-22T11:11:41.562Z,1.70
2018-12-22T11:12:41.557Z,0.90
2018-12-22T11:13:41.552Z,1.30
2018-12-22T11:14:41.549Z,1.30
2018-12-22T11:15:41.543Z,1.70
2018-12-22T11:16:41.537Z,1.30
2018-12-22T11:17:41.533Z,4.30
2018-12-22T11:18:41.527Z,2.70
2018-12-22T11:19:41.521Z,2.30
2018-12-22T11:20:41.516Z,1.80
2018-12-22T11:21:41.510Z,1.00
2018-12-22T11:22:41.504Z,1.40
2018-12-22T11:23:41.499Z,1.20
2018-12-22T11:24:41.497Z,1.40
2018-12-22T11:25:41.491Z,1.90
2018-12-22T11:26:41.487Z,1.80
2018-12-22T11:27:41.479Z,1.50
2018-12-22T11:28:41.475Z,1.30
2018-12-22T11:29:41.471Z,2.00
2018-12-22T11:30:41.465Z,1.50
2018-12-22T11:31:41.460Z,1.50
2018-12-22T11:32:41.455Z,1.20
2018-12-22T11:33:41.452Z,1.30
2018-12-22T11:34:41.444Z,1.40
2018-12-22T11:35:41.438Z,1.40
2018-12-22T11:36:41.434Z,1.10
2018-12-22T11:37:41.429Z,1.40
2018-12-22T11:38:41.426Z,1.00
2018-12-22T11:39:41.418Z,1.30
2018-12-22T11:40:41.414Z,1.20
2018-12-22T11:41:41.411Z,1.40
2018-12-22T11:42:47.554Z,1.10
2018-12-22T11:43:41.398Z,1.30
2018-12-22T11:44:41.396Z,1.30
2018-12-22T11:45:41.390Z,1.10
2018-12-22T11:46:41.385Z,1.70
2018-12-22T11:47:41.379Z,1.00
2018-12-22T11:48:41.375Z,1.10
2018-12-22T11:49:41.371Z,1.50
2018-12-22T11:50:41.364Z,1.80
2018-12-22T11:51:41.360Z,1.20
2018-12-22T11:52:41.355Z,0.90
2018-12-22T11:53:41.349Z,0.80
2018-12-22T11:54:41.346Z,0.70
2018-12-22T11:55:41.340Z,0.90
2018-12-22T11:56:41.341Z,1.30
2018-12-22T11:57:41.330Z,1.10
2018-12-22T11:58:41.324Z,1.30
2018-12-22T11:59:41.322Z,0.80
2018-12-22T12:00:41.316Z,0.90
2018-12-22T12:01:43.705Z,0.80
2018-12-22T12:02:41.307Z,0.90
2018-12-22T12:03:41.301Z,1.00
2018-12-22T12:04:42.131Z,1.20
2018-12-22T12:05:41.298Z,0.70
2018-12-22T12:06:41.287Z,0.90
2018-12-22T12:07:41.280Z,1.20
2018-12-22T12:08:41.277Z,0.90
2018-12-22T12:09:41.272Z,1.10
2018-12-22T12:10:41.270Z,1.00
2018-12-22T12:11:41.263Z,1.00
2018-12-22T12:12:41.259Z,0.90
2018-12-22T12:13:41.254Z,0.70
2018-12-22T12:14:41.248Z,0.90
2018-12-22T12:15:41.244Z,1.00
2018-12-22T12:16:41.236Z,0.90
2018-12-22T12:17:41.233Z,0.80
2018-12-22T12:18:41.229Z,0.80
2018-12-22T12:19:41.223Z,1.00
2018-12-22T12:20:41.219Z,0.90
2018-12-22T12:21:41.212Z,1.10
2018-12-22T12:22:41.209Z,1.30
2018-12-22T12:23:41.203Z,1.00
2018-12-22T12:24:41.200Z,1.10
2018-12-22T12:25:41.194Z,1.20
2018-12-22T12:26:41.189Z,0.90
2018-12-22T12:27:41.181Z,1.20
2018-12-22T12:28:41.182Z,0.90
2018-12-22T12:29:41.174Z,1.00
2018-12-22T12:30:41.170Z,0.80
2018-12-22T12:31:41.164Z,1.10
2018-12-22T12:32:41.158Z,1.30
2018-12-22T12:33:41.153Z,0.90
2018-12-22T12:34:41.153Z,1.20
2018-12-22T12:35:41.144Z,0.70
2018-12-22T12:36:41.138Z,1.00
2018-12-22T12:37:41.133Z,1.00
2018-12-22T12:38:41.129Z,1.00
2018-12-22T12:39:41.126Z,1.50
2018-12-22T12:40:41.120Z,1.40
2018-12-22T12:41:41.113Z,1.10
2018-12-22T12:42:41.111Z,1.10
2018-12-22T12:43:41.104Z,1.00
2018-12-22T12:44:42.261Z,1.50
2018-12-22T12:45:41.095Z,1.20
2018-12-22T12:46:41.090Z,1.40
2018-12-22T12:47:41.085Z,0.80
2018-12-22T12:48:41.079Z,0.70
2018-12-22T12:49:41.074Z,0.90
2018-12-22T12:50:41.071Z,0.90
2018-12-22T12:51:41.064Z,1.00
2018-12-22T12:52:41.059Z,1.00
2018-12-22T12:53:41.054Z,0.90
2018-12-22T12:54:41.050Z,0.90
2018-12-22T12:55:41.043Z,0.80
2018-12-22T12:56:41.039Z,0.90
2018-12-22T12:57:41.033Z,0.80
2018-12-22T12:58:41.029Z,0.80
2018-12-22T12:59:41.023Z,0.90
2018-12-22T13:00:41.020Z,1.00
2018-12-22T13:01:41.015Z,1.30
2018-12-22T13:02:41.008Z,0.90
2018-12-22T13:03:41.003Z,0.90
2018-12-22T13:04:40.998Z,0.80
2018-12-22T13:05:40.995Z,1.10
2018-12-22T13:06:40.988Z,0.60
2018-12-22T13:07:40.984Z,0.60
2018-12-22T13:08:40.978Z,1.40
2018-12-22T13:09:40.973Z,0.70
2018-12-22T13:10:40.970Z,0.90
2018-12-22T13:11:40.966Z,0.90
2018-12-22T13:12:40.958Z,0.70
2018-12-22T13:13:40.953Z,1.10
2018-12-22T13:14:40.947Z,0.90
2018-12-22T13:15:40.943Z,0.50
2018-12-22T13:16:40.938Z,0.90
2018-12-22T13:17:40.933Z,0.90
2018-12-22T13:18:40.928Z,0.90